sensor_id;sensor_type;location;lat;lon;timestamp;P1;durP1;ratioP1;P2;durP2;ratioP2
23490;SDS011;14683;50.038;8.078;2023-04-06T00:00:23;8.10;;;4.95;;
23490;SDS011;14683;50.038;8.078;2023-04-06T00:02:49;7.53;;;5.20;;
23490;SDS011;14683;50.038;8.078;2023-04-06T00:05:15;7.15;;;4.72;;
23490;SDS011;14683;50.038;8.078;2023-04-06T00:07:41;5.63;;;4.80;;
23490;SDS011;14683;50.038;8.078;2023-04-06T00:10:07;8.70;;;5.00;;
23490;SDS011;14683;50.038;8.078;2023-04-06T00:12:34;6.40;;;4.90;;
23490;SDS011;14683;50.038;8.078;2023-04-06T00:15:00;9.20;;;5.40;;
23490;SDS011;14683;50.038;8.078;2023-04-06T00:17:27;8.93;;;5.35;;
23490;SDS011;14683;50.038;8.078;2023-04-06T00:19:53;8.43;;;5.53;;
23490;SDS011;14683;50.038;8.078;2023-04-06T00:22:20;7.43;;;5.00;;
23490;SDS011;14683;50.038;8.078;2023-04-06T00:24:46;8.25;;;5.40;;
23490;SDS011;14683;50.038;8.078;2023-04-06T00:27:12;9.15;;;5.80;;
23490;SDS011;14683;50.038;8.078;2023-04-06T00:29:39;7.95;;;5.55;;
23490;SDS011;14683;50.038;8.078;2023-04-06T00:32:06;7.38;;;5.60;;
23490;SDS011;14683;50.038;8.078;2023-04-06T00:34:32;7.38;;;5.50;;
23490;SDS011;14683;50.038;8.078;2023-04-06T00:36:58;9.63;;;5.40;;
23490;SDS011;14683;50.038;8.078;2023-04-06T00:39:24;10.32;;;5.00;;
23490;SDS011;14683;50.038;8.078;2023-04-06T00:41:50;6.78;;;4.90;;
23490;SDS011;14683;50.038;8.078;2023-04-06T00:44:18;6.63;;;5.20;;
23490;SDS011;14683;50.038;8.078;2023-04-06T00:46:45;7.13;;;5.32;;
23490;SDS011;14683;50.038;8.078;2023-04-06T00:49:11;8.52;;;4.82;;
23490;SDS011;14683;50.038;8.078;2023-04-06T00:51:37;7.00;;;5.13;;
23490;SDS011;14683;50.038;8.078;2023-04-06T00:54:03;6.70;;;4.75;;
23490;SDS011;14683;50.038;8.078;2023-04-06T00:56:31;8.20;;;4.55;;
23490;SDS011;14683;50.038;8.078;2023-04-06T00:58:58;6.78;;;4.57;;
23490;SDS011;14683;50.038;8.078;2023-04-06T01:01:24;6.00;;;4.40;;
23490;SDS011;14683;50.038;8.078;2023-04-06T01:03:53;7.47;;;4.95;;
23490;SDS011;14683;50.038;8.078;2023-04-06T01:06:20;7.07;;;4.45;;
23490;SDS011;14683;50.038;8.078;2023-04-06T01:08:55;5.25;;;4.72;;
23490;SDS011;14683;50.038;8.078;2023-04-06T01:11:24;7.72;;;4.85;;
23490;SDS011;14683;50.038;8.078;2023-04-06T01:13:52;6.68;;;5.10;;
23490;SDS011;14683;50.038;8.078;2023-04-06T01:16:45;8.98;;;5.20;;
23490;SDS011;14683;50.038;8.078;2023-04-06T01:19:17;9.57;;;5.68;;
23490;SDS011;14683;50.038;8.078;2023-04-06T01:21:47;7.68;;;5.28;;
23490;SDS011;14683;50.038;8.078;2023-04-06T01:24:38;6.22;;;5.57;;
23490;SDS011;14683;50.038;8.078;2023-04-06T01:27:14;8.38;;;5.93;;
23490;SDS011;14683;50.038;8.078;2023-04-06T01:29:49;8.45;;;6.10;;
23490;SDS011;14683;50.038;8.078;2023-04-06T01:32:26;6.97;;;5.03;;
23490;SDS011;14683;50.038;8.078;2023-04-06T01:34:52;6.72;;;5.10;;
23490;SDS011;14683;50.038;8.078;2023-04-06T01:37:20;7.05;;;5.28;;
23490;SDS011;14683;50.038;8.078;2023-04-06T01:39:46;8.93;;;5.82;;
23490;SDS011;14683;50.038;8.078;2023-04-06T01:42:22;10.27;;;6.70;;
23490;SDS011;14683;50.038;8.078;2023-04-06T01:44:48;9.25;;;5.60;;
23490;SDS011;14683;50.038;8.078;2023-04-06T01:47:15;6.72;;;5.32;;
23490;SDS011;14683;50.038;8.078;2023-04-06T01:49:42;6.93;;;5.40;;
23490;SDS011;14683;50.038;8.078;2023-04-06T01:52:08;8.00;;;5.63;;
23490;SDS011;14683;50.038;8.078;2023-04-06T01:54:37;10.48;;;5.38;;
23490;SDS011;14683;50.038;8.078;2023-04-06T01:57:38;9.43;;;5.75;;
23490;SDS011;14683;50.038;8.078;2023-04-06T02:00:13;8.30;;;5.40;;
23490;SDS011;14683;50.038;8.078;2023-04-06T02:02:39;8.73;;;5.40;;
23490;SDS011;14683;50.038;8.078;2023-04-06T02:05:12;9.70;;;6.20;;
23490;SDS011;14683;50.038;8.078;2023-04-06T02:07:39;8.90;;;5.53;;
23490;SDS011;14683;50.038;8.078;2023-04-06T02:10:10;8.65;;;5.72;;
23490;SDS011;14683;50.038;8.078;2023-04-06T02:12:37;8.45;;;6.03;;
23490;SDS011;14683;50.038;8.078;2023-04-06T02:15:06;9.93;;;5.70;;
23490;SDS011;14683;50.038;8.078;2023-04-06T02:17:33;8.05;;;5.93;;
23490;SDS011;14683;50.038;8.078;2023-04-06T02:19:59;10.18;;;6.95;;
23490;SDS011;14683;50.038;8.078;2023-04-06T02:22:25;6.93;;;5.53;;
23490;SDS011;14683;50.038;8.078;2023-04-06T02:24:51;7.20;;;5.55;;
23490;SDS011;14683;50.038;8.078;2023-04-06T02:27:17;5.20;;;4.70;;
23490;SDS011;14683;50.038;8.078;2023-04-06T02:29:46;7.15;;;5.20;;
23490;SDS011;14683;50.038;8.078;2023-04-06T02:32:14;7.68;;;5.28;;
23490;SDS011;14683;50.038;8.078;2023-04-06T02:34:40;8.57;;;5.18;;
23490;SDS011;14683;50.038;8.078;2023-04-06T02:37:06;8.02;;;5.30;;
23490;SDS011;14683;50.038;8.078;2023-04-06T02:39:32;10.45;;;6.50;;
23490;SDS011;14683;50.038;8.078;2023-04-06T02:41:59;10.13;;;5.20;;
23490;SDS011;14683;50.038;8.078;2023-04-06T02:44:26;8.55;;;5.38;;
23490;SDS011;14683;50.038;8.078;2023-04-06T02:46:52;7.97;;;5.85;;
23490;SDS011;14683;50.038;8.078;2023-04-06T02:49:19;7.57;;;5.90;;
23490;SDS011;14683;50.038;8.078;2023-04-06T02:51:45;10.68;;;5.68;;
23490;SDS011;14683;50.038;8.078;2023-04-06T02:54:19;8.60;;;6.78;;
23490;SDS011;14683;50.038;8.078;2023-04-06T02:56:45;9.98;;;6.97;;
23490;SDS011;14683;50.038;8.078;2023-04-06T02:59:12;9.73;;;6.63;;
23490;SDS011;14683;50.038;8.078;2023-04-06T03:01:42;11.25;;;6.55;;
23490;SDS011;14683;50.038;8.078;2023-04-06T03:04:08;11.40;;;6.40;;
23490;SDS011;14683;50.038;8.078;2023-04-06T03:06:35;11.10;;;7.03;;
23490;SDS011;14683;50.038;8.078;2023-04-06T03:09:10;13.88;;;7.20;;
23490;SDS011;14683;50.038;8.078;2023-04-06T03:11:40;9.90;;;6.93;;
23490;SDS011;14683;50.038;8.078;2023-04-06T03:14:06;12.43;;;6.78;;
23490;SDS011;14683;50.038;8.078;2023-04-06T03:16:32;10.10;;;7.00;;
23490;SDS011;14683;50.038;8.078;2023-04-06T03:19:00;10.50;;;7.35;;
23490;SDS011;14683;50.038;8.078;2023-04-06T03:21:27;10.02;;;6.88;;
23490;SDS011;14683;50.038;8.078;2023-04-06T03:23:54;10.18;;;6.78;;
23490;SDS011;14683;50.038;8.078;2023-04-06T03:26:20;9.70;;;7.13;;
23490;SDS011;14683;50.038;8.078;2023-04-06T03:28:48;13.55;;;6.78;;
23490;SDS011;14683;50.038;8.078;2023-04-06T03:31:16;10.63;;;6.63;;
23490;SDS011;14683;50.038;8.078;2023-04-06T03:34:11;11.32;;;7.20;;
23490;SDS011;14683;50.038;8.078;2023-04-06T03:36:37;10.77;;;6.93;;
23490;SDS011;14683;50.038;8.078;2023-04-06T03:39:04;11.63;;;7.63;;
23490;SDS011;14683;50.038;8.078;2023-04-06T03:41:33;9.52;;;7.32;;
23490;SDS011;14683;50.038;8.078;2023-04-06T03:44:16;9.77;;;7.10;;
23490;SDS011;14683;50.038;8.078;2023-04-06T03:46:43;10.70;;;7.75;;
23490;SDS011;14683;50.038;8.078;2023-04-06T03:49:10;10.23;;;7.10;;
23490;SDS011;14683;50.038;8.078;2023-04-06T03:51:37;8.13;;;6.80;;
23490;SDS011;14683;50.038;8.078;2023-04-06T03:54:03;9.68;;;6.05;;
23490;SDS011;14683;50.038;8.078;2023-04-06T03:56:30;9.27;;;5.68;;
23490;SDS011;14683;50.038;8.078;2023-04-06T03:58:56;8.63;;;5.75;;
23490;SDS011;14683;50.038;8.078;2023-04-06T04:01:22;8.23;;;5.03;;
23490;SDS011;14683;50.038;8.078;2023-04-06T04:03:48;9.18;;;5.63;;
23490;SDS011;14683;50.038;8.078;2023-04-06T04:06:14;9.13;;;5.20;;
23490;SDS011;14683;50.038;8.078;2023-04-06T04:08:41;7.55;;;4.93;;
23490;SDS011;14683;50.038;8.078;2023-04-06T04:11:07;7.78;;;5.07;;
23490;SDS011;14683;50.038;8.078;2023-04-06T04:13:34;8.73;;;5.20;;
23490;SDS011;14683;50.038;8.078;2023-04-06T04:16:03;10.30;;;6.07;;
23490;SDS011;14683;50.038;8.078;2023-04-06T04:18:29;10.32;;;5.57;;
23490;SDS011;14683;50.038;8.078;2023-04-06T04:20:55;7.22;;;5.47;;
23490;SDS011;14683;50.038;8.078;2023-04-06T04:23:22;9.10;;;5.82;;
23490;SDS011;14683;50.038;8.078;2023-04-06T04:25:48;10.20;;;6.28;;
23490;SDS011;14683;50.038;8.078;2023-04-06T04:28:14;11.32;;;5.90;;
23490;SDS011;14683;50.038;8.078;2023-04-06T04:30:42;7.85;;;5.68;;
23490;SDS011;14683;50.038;8.078;2023-04-06T04:33:10;10.10;;;6.18;;
23490;SDS011;14683;50.038;8.078;2023-04-06T04:35:37;12.30;;;6.38;;
23490;SDS011;14683;50.038;8.078;2023-04-06T04:38:04;7.70;;;5.88;;
23490;SDS011;14683;50.038;8.078;2023-04-06T04:40:31;8.75;;;6.03;;
23490;SDS011;14683;50.038;8.078;2023-04-06T04:43:06;9.50;;;5.93;;
23490;SDS011;14683;50.038;8.078;2023-04-06T04:45:33;9.27;;;6.72;;
23490;SDS011;14683;50.038;8.078;2023-04-06T04:48:10;13.32;;;6.80;;
23490;SDS011;14683;50.038;8.078;2023-04-06T04:50:48;10.80;;;7.00;;
23490;SDS011;14683;50.038;8.078;2023-04-06T04:53:16;10.40;;;7.13;;
23490;SDS011;14683;50.038;8.078;2023-04-06T04:55:43;10.18;;;7.78;;
23490;SDS011;14683;50.038;8.078;2023-04-06T04:58:11;11.18;;;7.68;;
23490;SDS011;14683;50.038;8.078;2023-04-06T05:00:54;11.00;;;6.82;;
23490;SDS011;14683;50.038;8.078;2023-04-06T05:03:21;10.40;;;6.75;;
23490;SDS011;14683;50.038;8.078;2023-04-06T05:05:56;9.23;;;6.00;;
23490;SDS011;14683;50.038;8.078;2023-04-06T05:08:25;10.13;;;6.68;;
23490;SDS011;14683;50.038;8.078;2023-04-06T05:10:51;9.73;;;6.07;;
23490;SDS011;14683;50.038;8.078;2023-04-06T05:13:18;11.52;;;6.65;;
23490;SDS011;14683;50.038;8.078;2023-04-06T05:15:47;7.70;;;6.03;;
23490;SDS011;14683;50.038;8.078;2023-04-06T05:18:24;10.88;;;6.72;;
23490;SDS011;14683;50.038;8.078;2023-04-06T05:20:50;8.40;;;6.15;;
23490;SDS011;14683;50.038;8.078;2023-04-06T05:23:19;9.00;;;6.20;;
23490;SDS011;14683;50.038;8.078;2023-04-06T05:25:45;10.52;;;6.53;;
23490;SDS011;14683;50.038;8.078;2023-04-06T05:28:17;12.57;;;6.50;;
23490;SDS011;14683;50.038;8.078;2023-04-06T05:30:44;14.65;;;7.45;;
23490;SDS011;14683;50.038;8.078;2023-04-06T05:33:12;15.82;;;7.85;;
23490;SDS011;14683;50.038;8.078;2023-04-06T05:35:56;13.57;;;8.27;;
23490;SDS011;14683;50.038;8.078;2023-04-06T05:38:22;14.95;;;8.95;;
23490;SDS011;14683;50.038;8.078;2023-04-06T05:40:51;14.55;;;8.68;;
23490;SDS011;14683;50.038;8.078;2023-04-06T05:43:21;14.38;;;8.98;;
23490;SDS011;14683;50.038;8.078;2023-04-06T05:45:52;15.15;;;9.27;;
23490;SDS011;14683;50.038;8.078;2023-04-06T05:48:19;15.55;;;9.80;;
23490;SDS011;14683;50.038;8.078;2023-04-06T05:50:49;16.30;;;9.43;;
23490;SDS011;14683;50.038;8.078;2023-04-06T05:53:24;13.77;;;9.35;;
23490;SDS011;14683;50.038;8.078;2023-04-06T05:55:55;16.27;;;9.32;;
23490;SDS011;14683;50.038;8.078;2023-04-06T05:58:21;13.35;;;8.80;;
23490;SDS011;14683;50.038;8.078;2023-04-06T06:00:50;14.60;;;9.05;;
23490;SDS011;14683;50.038;8.078;2023-04-06T06:03:18;13.40;;;8.52;;
23490;SDS011;14683;50.038;8.078;2023-04-06T06:05:50;12.00;;;8.30;;
23490;SDS011;14683;50.038;8.078;2023-04-06T06:08:24;15.35;;;8.30;;
23490;SDS011;14683;50.038;8.078;2023-04-06T06:10:51;14.77;;;8.70;;
23490;SDS011;14683;50.038;8.078;2023-04-06T06:13:21;14.07;;;8.57;;
23490;SDS011;14683;50.038;8.078;2023-04-06T06:15:49;13.20;;;8.27;;
23490;SDS011;14683;50.038;8.078;2023-04-06T06:18:17;16.08;;;8.60;;
23490;SDS011;14683;50.038;8.078;2023-04-06T06:20:43;16.23;;;9.80;;
23490;SDS011;14683;50.038;8.078;2023-04-06T06:23:09;14.95;;;9.48;;
23490;SDS011;14683;50.038;8.078;2023-04-06T06:25:36;13.45;;;9.52;;
23490;SDS011;14683;50.038;8.078;2023-04-06T06:28:03;14.93;;;9.85;;
23490;SDS011;14683;50.038;8.078;2023-04-06T06:30:31;15.40;;;9.88;;
23490;SDS011;14683;50.038;8.078;2023-04-06T06:32:58;13.95;;;9.65;;
23490;SDS011;14683;50.038;8.078;2023-04-06T06:35:25;15.75;;;10.02;;
23490;SDS011;14683;50.038;8.078;2023-04-06T06:37:51;13.10;;;9.18;;
23490;SDS011;14683;50.038;8.078;2023-04-06T06:40:21;13.63;;;8.90;;
23490;SDS011;14683;50.038;8.078;2023-04-06T06:42:49;14.20;;;8.75;;
23490;SDS011;14683;50.038;8.078;2023-04-06T06:45:31;14.07;;;9.07;;
23490;SDS011;14683;50.038;8.078;2023-04-06T06:47:58;15.38;;;10.55;;
23490;SDS011;14683;50.038;8.078;2023-04-06T06:50:24;13.82;;;9.38;;
23490;SDS011;14683;50.038;8.078;2023-04-06T06:52:50;26.70;;;18.92;;
23490;SDS011;14683;50.038;8.078;2023-04-06T06:57:44;11.55;;;7.82;;
23490;SDS011;14683;50.038;8.078;2023-04-06T07:00:12;11.02;;;7.63;;
23490;SDS011;14683;50.038;8.078;2023-04-06T07:02:41;14.43;;;10.27;;
23490;SDS011;14683;50.038;8.078;2023-04-06T07:05:07;12.57;;;9.20;;
23490;SDS011;14683;50.038;8.078;2023-04-06T07:07:33;11.70;;;9.45;;
23490;SDS011;14683;50.038;8.078;2023-04-06T07:10:00;13.02;;;8.75;;
23490;SDS011;14683;50.038;8.078;2023-04-06T07:12:26;13.15;;;9.70;;
23490;SDS011;14683;50.038;8.078;2023-04-06T07:14:52;21.10;;;12.85;;
23490;SDS011;14683;50.038;8.078;2023-04-06T07:17:18;13.23;;;9.57;;
23490;SDS011;14683;50.038;8.078;2023-04-06T07:22:11;15.93;;;11.30;;
23490;SDS011;14683;50.038;8.078;2023-04-06T07:24:37;17.20;;;10.00;;
23490;SDS011;14683;50.038;8.078;2023-04-06T07:29:29;12.15;;;8.93;;
23490;SDS011;14683;50.038;8.078;2023-04-06T07:31:56;11.88;;;8.48;;
23490;SDS011;14683;50.038;8.078;2023-04-06T07:34:22;15.45;;;9.27;;
23490;SDS011;14683;50.038;8.078;2023-04-06T07:36:48;16.95;;;10.40;;
23490;SDS011;14683;50.038;8.078;2023-04-06T07:39:15;14.23;;;9.13;;
23490;SDS011;14683;50.038;8.078;2023-04-06T07:41:41;15.65;;;9.70;;
23490;SDS011;14683;50.038;8.078;2023-04-06T07:44:07;17.48;;;10.38;;
23490;SDS011;14683;50.038;8.078;2023-04-06T07:46:33;13.88;;;9.20;;
23490;SDS011;14683;50.038;8.078;2023-04-06T07:49:00;14.65;;;9.95;;
23490;SDS011;14683;50.038;8.078;2023-04-06T07:51:29;14.68;;;9.52;;
23490;SDS011;14683;50.038;8.078;2023-04-06T07:53:56;14.23;;;10.05;;
23490;SDS011;14683;50.038;8.078;2023-04-06T07:58:48;17.08;;;11.60;;
23490;SDS011;14683;50.038;8.078;2023-04-06T08:01:14;13.20;;;10.68;;
23490;SDS011;14683;50.038;8.078;2023-04-06T08:06:06;14.98;;;9.68;;
23490;SDS011;14683;50.038;8.078;2023-04-06T08:10:58;16.27;;;10.57;;
23490;SDS011;14683;50.038;8.078;2023-04-06T08:13:25;15.05;;;10.77;;
23490;SDS011;14683;50.038;8.078;2023-04-06T08:18:19;16.70;;;10.23;;
23490;SDS011;14683;50.038;8.078;2023-04-06T08:20:45;12.43;;;9.90;;
23490;SDS011;14683;50.038;8.078;2023-04-06T08:23:11;18.20;;;10.00;;
23490;SDS011;14683;50.038;8.078;2023-04-06T08:25:37;15.63;;;10.52;;
23490;SDS011;14683;50.038;8.078;2023-04-06T08:30:29;16.50;;;9.43;;
23490;SDS011;14683;50.038;8.078;2023-04-06T08:32:55;12.48;;;9.27;;
23490;SDS011;14683;50.038;8.078;2023-04-06T08:35:21;13.60;;;9.82;;
23490;SDS011;14683;50.038;8.078;2023-04-06T08:37:47;15.73;;;9.23;;
23490;SDS011;14683;50.038;8.078;2023-04-06T08:40:13;14.70;;;9.30;;
23490;SDS011;14683;50.038;8.078;2023-04-06T08:45:09;14.27;;;9.38;;
23490;SDS011;14683;50.038;8.078;2023-04-06T08:47:36;12.13;;;8.73;;
23490;SDS011;14683;50.038;8.078;2023-04-06T08:50:06;14.95;;;8.57;;
23490;SDS011;14683;50.038;8.078;2023-04-06T08:52:33;13.98;;;9.15;;
23490;SDS011;14683;50.038;8.078;2023-04-06T08:55:00;11.38;;;8.40;;
23490;SDS011;14683;50.038;8.078;2023-04-06T08:57:26;14.43;;;9.18;;
23490;SDS011;14683;50.038;8.078;2023-04-06T08:59:52;12.25;;;9.07;;
23490;SDS011;14683;50.038;8.078;2023-04-06T09:02:19;10.93;;;8.25;;
23490;SDS011;14683;50.038;8.078;2023-04-06T09:04:47;12.27;;;8.07;;
23490;SDS011;14683;50.038;8.078;2023-04-06T09:07:14;10.27;;;7.13;;
23490;SDS011;14683;50.038;8.078;2023-04-06T09:09:41;13.48;;;7.40;;
23490;SDS011;14683;50.038;8.078;2023-04-06T09:12:25;11.02;;;8.10;;
23490;SDS011;14683;50.038;8.078;2023-04-06T09:14:55;12.32;;;8.00;;
23490;SDS011;14683;50.038;8.078;2023-04-06T09:17:22;12.07;;;8.30;;
23490;SDS011;14683;50.038;8.078;2023-04-06T09:19:49;12.15;;;8.52;;
23490;SDS011;14683;50.038;8.078;2023-04-06T09:22:15;12.75;;;8.55;;
23490;SDS011;14683;50.038;8.078;2023-04-06T09:24:42;13.43;;;8.75;;
23490;SDS011;14683;50.038;8.078;2023-04-06T09:27:10;12.32;;;8.38;;
23490;SDS011;14683;50.038;8.078;2023-04-06T09:32:03;16.73;;;9.23;;
23490;SDS011;14683;50.038;8.078;2023-04-06T09:34:30;13.00;;;8.90;;
23490;SDS011;14683;50.038;8.078;2023-04-06T09:36:56;13.02;;;8.75;;
23490;SDS011;14683;50.038;8.078;2023-04-06T09:39:23;13.70;;;8.82;;
23490;SDS011;14683;50.038;8.078;2023-04-06T09:44:16;16.65;;;9.02;;
23490;SDS011;14683;50.038;8.078;2023-04-06T09:49:09;14.23;;;9.20;;
23490;SDS011;14683;50.038;8.078;2023-04-06T09:51:37;14.90;;;9.65;;
23490;SDS011;14683;50.038;8.078;2023-04-06T09:54:05;14.05;;;9.27;;
23490;SDS011;14683;50.038;8.078;2023-04-06T09:59:40;13.32;;;9.88;;
23490;SDS011;14683;50.038;8.078;2023-04-06T10:02:27;12.82;;;9.38;;
23490;SDS011;14683;50.038;8.078;2023-04-06T10:04:59;15.13;;;9.75;;
23490;SDS011;14683;50.038;8.078;2023-04-06T10:07:28;13.48;;;9.15;;
23490;SDS011;14683;50.038;8.078;2023-04-06T10:12:20;12.45;;;8.93;;
23490;SDS011;14683;50.038;8.078;2023-04-06T10:14:46;13.63;;;9.50;;
23490;SDS011;14683;50.038;8.078;2023-04-06T10:17:13;13.70;;;9.50;;
23490;SDS011;14683;50.038;8.078;2023-04-06T10:22:16;14.52;;;8.70;;
23490;SDS011;14683;50.038;8.078;2023-04-06T10:24:48;13.65;;;8.88;;
23490;SDS011;14683;50.038;8.078;2023-04-06T10:27:14;12.90;;;9.05;;
23490;SDS011;14683;50.038;8.078;2023-04-06T10:32:07;14.48;;;9.50;;
23490;SDS011;14683;50.038;8.078;2023-04-06T10:34:36;15.23;;;9.43;;
23490;SDS011;14683;50.038;8.078;2023-04-06T10:37:15;16.88;;;10.77;;
23490;SDS011;14683;50.038;8.078;2023-04-06T10:39:45;14.52;;;10.15;;
23490;SDS011;14683;50.038;8.078;2023-04-06T10:42:24;12.93;;;9.32;;
23490;SDS011;14683;50.038;8.078;2023-04-06T10:44:51;14.23;;;9.18;;
23490;SDS011;14683;50.038;8.078;2023-04-06T10:49:43;15.40;;;9.70;;
23490;SDS011;14683;50.038;8.078;2023-04-06T10:52:09;13.48;;;9.10;;
23490;SDS011;14683;50.038;8.078;2023-04-06T10:54:35;11.65;;;8.52;;
23490;SDS011;14683;50.038;8.078;2023-04-06T10:57:07;14.80;;;9.38;;
23490;SDS011;14683;50.038;8.078;2023-04-06T10:59:33;10.45;;;8.40;;
23490;SDS011;14683;50.038;8.078;2023-04-06T11:01:59;20.25;;;10.45;;
23490;SDS011;14683;50.038;8.078;2023-04-06T11:04:25;15.63;;;9.77;;
23490;SDS011;14683;50.038;8.078;2023-04-06T11:06:51;13.90;;;9.52;;
23490;SDS011;14683;50.038;8.078;2023-04-06T11:09:24;16.33;;;10.23;;
23490;SDS011;14683;50.038;8.078;2023-04-06T11:11:53;14.02;;;9.38;;
23490;SDS011;14683;50.038;8.078;2023-04-06T11:14:21;17.05;;;9.60;;
23490;SDS011;14683;50.038;8.078;2023-04-06T11:16:47;15.23;;;9.68;;
23490;SDS011;14683;50.038;8.078;2023-04-06T11:19:17;16.38;;;9.02;;
23490;SDS011;14683;50.038;8.078;2023-04-06T11:21:44;14.65;;;9.70;;
23490;SDS011;14683;50.038;8.078;2023-04-06T11:29:17;15.63;;;9.45;;
23490;SDS011;14683;50.038;8.078;2023-04-06T11:31:46;14.48;;;10.25;;
23490;SDS011;14683;50.038;8.078;2023-04-06T11:34:19;15.68;;;10.27;;
23490;SDS011;14683;50.038;8.078;2023-04-06T11:36:47;12.48;;;9.38;;
23490;SDS011;14683;50.038;8.078;2023-04-06T11:39:21;19.17;;;10.15;;
23490;SDS011;14683;50.038;8.078;2023-04-06T11:41:49;18.20;;;10.18;;
23490;SDS011;14683;50.038;8.078;2023-04-06T11:44:28;15.40;;;9.32;;
23490;SDS011;14683;50.038;8.078;2023-04-06T11:46:54;12.68;;;9.23;;
23490;SDS011;14683;50.038;8.078;2023-04-06T11:49:26;12.98;;;9.35;;
23490;SDS011;14683;50.038;8.078;2023-04-06T11:51:53;13.90;;;9.07;;
23490;SDS011;14683;50.038;8.078;2023-04-06T11:54:29;15.80;;;9.95;;
23490;SDS011;14683;50.038;8.078;2023-04-06T11:57:04;13.25;;;9.10;;
23490;SDS011;14683;50.038;8.078;2023-04-06T11:59:31;16.05;;;9.75;;
23490;SDS011;14683;50.038;8.078;2023-04-06T12:01:57;16.17;;;9.45;;
23490;SDS011;14683;50.038;8.078;2023-04-06T12:04:23;17.20;;;9.52;;
23490;SDS011;14683;50.038;8.078;2023-04-06T12:06:49;14.13;;;9.02;;
23490;SDS011;14683;50.038;8.078;2023-04-06T12:09:16;16.40;;;9.77;;
23490;SDS011;14683;50.038;8.078;2023-04-06T12:11:43;17.33;;;10.02;;
23490;SDS011;14683;50.038;8.078;2023-04-06T12:16:35;16.90;;;9.75;;
23490;SDS011;14683;50.038;8.078;2023-04-06T12:19:01;14.60;;;9.57;;
23490;SDS011;14683;50.038;8.078;2023-04-06T12:21:28;15.40;;;9.38;;
23490;SDS011;14683;50.038;8.078;2023-04-06T12:23:56;15.40;;;9.13;;
23490;SDS011;14683;50.038;8.078;2023-04-06T12:26:24;13.85;;;8.95;;
23490;SDS011;14683;50.038;8.078;2023-04-06T12:28:50;18.27;;;9.27;;
23490;SDS011;14683;50.038;8.078;2023-04-06T12:33:43;13.75;;;9.30;;
23490;SDS011;14683;50.038;8.078;2023-04-06T12:36:13;17.05;;;10.80;;
23490;SDS011;14683;50.038;8.078;2023-04-06T12:38:41;17.52;;;9.93;;
23490;SDS011;14683;50.038;8.078;2023-04-06T12:41:07;15.77;;;9.73;;
23490;SDS011;14683;50.038;8.078;2023-04-06T12:43:33;16.73;;;9.68;;
23490;SDS011;14683;50.038;8.078;2023-04-06T12:45:59;16.50;;;10.48;;
23490;SDS011;14683;50.038;8.078;2023-04-06T12:50:59;14.15;;;9.45;;
23490;SDS011;14683;50.038;8.078;2023-04-06T12:53:27;14.85;;;9.68;;
23490;SDS011;14683;50.038;8.078;2023-04-06T12:55:54;15.70;;;9.43;;
23490;SDS011;14683;50.038;8.078;2023-04-06T12:58:21;16.13;;;10.10;;
23490;SDS011;14683;50.038;8.078;2023-04-06T13:00:48;16.95;;;10.32;;
23490;SDS011;14683;50.038;8.078;2023-04-06T13:03:14;15.10;;;9.55;;
23490;SDS011;14683;50.038;8.078;2023-04-06T13:05:47;13.80;;;9.68;;
23490;SDS011;14683;50.038;8.078;2023-04-06T13:08:14;15.60;;;9.45;;
23490;SDS011;14683;50.038;8.078;2023-04-06T13:10:44;15.38;;;9.80;;
23490;SDS011;14683;50.038;8.078;2023-04-06T13:13:12;17.27;;;9.25;;
23490;SDS011;14683;50.038;8.078;2023-04-06T13:15:38;14.50;;;9.40;;
23490;SDS011;14683;50.038;8.078;2023-04-06T13:20:30;12.05;;;8.35;;
23490;SDS011;14683;50.038;8.078;2023-04-06T13:22:56;13.35;;;8.25;;
23490;SDS011;14683;50.038;8.078;2023-04-06T13:25:22;9.77;;;5.97;;
23490;SDS011;14683;50.038;8.078;2023-04-06T13:27:48;6.00;;;4.78;;
23490;SDS011;14683;50.038;8.078;2023-04-06T13:30:15;8.93;;;5.47;;
23490;SDS011;14683;50.038;8.078;2023-04-06T13:32:41;9.23;;;6.13;;
23490;SDS011;14683;50.038;8.078;2023-04-06T13:35:08;10.10;;;5.78;;
23490;SDS011;14683;50.038;8.078;2023-04-06T13:40:00;10.82;;;6.28;;
23490;SDS011;14683;50.038;8.078;2023-04-06T13:42:27;9.07;;;6.45;;
23490;SDS011;14683;50.038;8.078;2023-04-06T13:44:54;14.02;;;6.55;;
23490;SDS011;14683;50.038;8.078;2023-04-06T13:47:20;11.95;;;7.70;;
23490;SDS011;14683;50.038;8.078;2023-04-06T13:49:51;14.43;;;10.48;;
23490;SDS011;14683;50.038;8.078;2023-04-06T13:52:21;9.43;;;6.90;;
23490;SDS011;14683;50.038;8.078;2023-04-06T13:54:48;9.63;;;6.38;;
23490;SDS011;14683;50.038;8.078;2023-04-06T13:57:15;8.77;;;5.75;;
23490;SDS011;14683;50.038;8.078;2023-04-06T13:59:41;12.02;;;5.80;;
23490;SDS011;14683;50.038;8.078;2023-04-06T14:02:07;10.52;;;6.10;;
23490;SDS011;14683;50.038;8.078;2023-04-06T14:04:34;10.05;;;5.90;;
23490;SDS011;14683;50.038;8.078;2023-04-06T14:09:27;11.37;;;5.90;;
23490;SDS011;14683;50.038;8.078;2023-04-06T14:11:53;8.85;;;6.10;;
23490;SDS011;14683;50.038;8.078;2023-04-06T14:14:20;12.40;;;7.35;;
23490;SDS011;14683;50.038;8.078;2023-04-06T14:16:46;8.05;;;6.03;;
23490;SDS011;14683;50.038;8.078;2023-04-06T14:21:44;18.65;;;6.38;;
23490;SDS011;14683;50.038;8.078;2023-04-06T14:24:11;11.25;;;6.97;;
23490;SDS011;14683;50.038;8.078;2023-04-06T14:26:38;8.85;;;6.18;;
23490;SDS011;14683;50.038;8.078;2023-04-06T14:29:05;8.10;;;6.30;;
23490;SDS011;14683;50.038;8.078;2023-04-06T14:31:31;9.30;;;6.07;;
23490;SDS011;14683;50.038;8.078;2023-04-06T14:33:57;8.15;;;6.10;;
23490;SDS011;14683;50.038;8.078;2023-04-06T14:36:24;13.77;;;8.93;;
23490;SDS011;14683;50.038;8.078;2023-04-06T14:38:53;13.75;;;6.78;;
23490;SDS011;14683;50.038;8.078;2023-04-06T14:43:46;8.60;;;5.65;;
23490;SDS011;14683;50.038;8.078;2023-04-06T14:46:12;12.02;;;6.80;;
23490;SDS011;14683;50.038;8.078;2023-04-06T14:48:38;16.80;;;6.82;;
23490;SDS011;14683;50.038;8.078;2023-04-06T14:53:30;12.63;;;6.30;;
23490;SDS011;14683;50.038;8.078;2023-04-06T14:55:57;12.90;;;6.03;;
23490;SDS011;14683;50.038;8.078;2023-04-06T14:58:23;9.90;;;6.05;;
23490;SDS011;14683;50.038;8.078;2023-04-06T15:00:55;9.30;;;6.15;;
23490;SDS011;14683;50.038;8.078;2023-04-06T15:03:22;8.68;;;5.95;;
23490;SDS011;14683;50.038;8.078;2023-04-06T15:05:51;6.90;;;5.10;;
23490;SDS011;14683;50.038;8.078;2023-04-06T15:08:17;7.82;;;4.85;;
23490;SDS011;14683;50.038;8.078;2023-04-06T15:10:46;9.75;;;6.05;;
23490;SDS011;14683;50.038;8.078;2023-04-06T15:13:12;9.25;;;5.68;;
23490;SDS011;14683;50.038;8.078;2023-04-06T15:15:40;6.47;;;5.07;;
23490;SDS011;14683;50.038;8.078;2023-04-06T15:18:06;8.20;;;5.28;;
23490;SDS011;14683;50.038;8.078;2023-04-06T15:20:32;8.48;;;5.50;;
23490;SDS011;14683;50.038;8.078;2023-04-06T15:22:58;8.05;;;4.88;;
23490;SDS011;14683;50.038;8.078;2023-04-06T15:25:25;6.68;;;4.85;;
23490;SDS011;14683;50.038;8.078;2023-04-06T15:27:51;6.25;;;4.47;;
23490;SDS011;14683;50.038;8.078;2023-04-06T15:30:17;5.68;;;3.90;;
23490;SDS011;14683;50.038;8.078;2023-04-06T15:32:51;4.20;;;3.45;;
23490;SDS011;14683;50.038;8.078;2023-04-06T15:35:19;2.78;;;2.25;;
23490;SDS011;14683;50.038;8.078;2023-04-06T15:40:11;5.32;;;2.08;;
23490;SDS011;14683;50.038;8.078;2023-04-06T15:42:39;2.95;;;2.20;;
23490;SDS011;14683;50.038;8.078;2023-04-06T15:45:07;4.20;;;2.38;;
23490;SDS011;14683;50.038;8.078;2023-04-06T15:47:34;3.83;;;3.17;;
23490;SDS011;14683;50.038;8.078;2023-04-06T15:50:00;8.52;;;5.72;;
23490;SDS011;14683;50.038;8.078;2023-04-06T15:52:26;12.75;;;7.72;;
23490;SDS011;14683;50.038;8.078;2023-04-06T15:54:52;10.25;;;7.07;;